Time;durP1;ratioP1;P1;durP2;ratioP2;P2;SDS_P1;SDS_P2;PMS_P1;PMS_P2;Temp;Humidity;BMP_temperature;BMP_pressure;BME280_temperature;BME280_humidity;BME280_pressure;Samples;Min_cycle;Max_cycle;Signal;HPM_P1;HPM_P2
2021/10/18 00:02:49;;;;;;;53.40;27.80;;;;;;;4.83;76.04;99263.73;235884;1194;22440;-72
2021/10/18 00:08:06;;;;;;;54.10;28.20;;;;;;;4.85;76.30;99261.00;236130;1193;22449;-73
2021/10/18 00:13:08;;;;;;;49.00;26.30;;;;;;;4.86;76.46;99260.54;236077;1190;22433;-74
2021/10/18 00:18:11;;;;;;;55.40;29.00;;;;;;;4.87;76.48;99264.98;235883;1196;22447;-75
2021/10/18 00:23:13;;;;;;;62.20;32.30;;;;;;;4.90;76.54;99262.43;235923;1184;24051;-74
2021/10/18 00:28:15;;;;;;;79.00;41.60;;;;;;;4.94;76.37;99255.27;235510;1194;25161;-73
2021/10/18 00:33:18;;;;;;;70.50;36.20;;;;;;;5.00;76.50;99247.67;235860;1193;22792;-72
2021/10/18 00:38:20;;;;;;;73.20;40.90;;;;;;;4.99;76.41;99253.98;235749;1195;22468;-72
2021/10/18 00:43:23;;;;;;;74.70;37.00;;;;;;;5.02;76.69;99250.93;235842;1193;22480;-74
2021/10/18 00:48:26;;;;;;;71.70;37.10;;;;;;;5.08;76.86;99242.59;235633;1190;22445;-72
2021/10/18 00:53:28;;;;;;;69.80;35.70;;;;;;;5.13;76.64;99241.56;235805;1198;24060;-72
2021/10/18 00:58:31;;;;;;;69.00;37.10;;;;;;;5.19;76.72;99247.02;235767;1193;22557;-73
2021/10/18 01:03:36;;;;;;;72.50;35.50;;;;;;;5.24;76.62;99245.30;235895;1197;25225;-72
2021/10/18 01:08:38;;;;;;;70.80;35.20;;;;;;;5.24;76.75;99243.97;235814;1197;23648;-74
2021/10/18 01:13:51;;;;;;;71.00;35.40;;;;;;;5.27;76.82;99243.02;236047;1192;22736;-74
2021/10/18 01:18:55;;;;;;;67.90;36.60;;;;;;;5.33;77.10;99244.89;235975;1192;23137;-72
2021/10/18 01:23:58;;;;;;;76.20;38.80;;;;;;;5.35;76.97;99239.95;235911;1198;24108;-74
2021/10/18 01:29:00;;;;;;;75.60;38.90;;;;;;;5.38;77.11;99237.12;235865;1191;22475;-73
2021/10/18 01:34:02;;;;;;;75.90;38.00;;;;;;;5.40;76.93;99236.77;235787;1193;24293;-74
2021/10/18 01:39:05;;;;;;;76.20;39.90;;;;;;;5.43;77.05;99242.67;235863;1190;22500;-72
2021/10/18 01:44:16;;;;;;;68.60;34.00;;;;;;;5.46;77.40;99250.90;236051;1193;25381;-73
2021/10/18 01:49:39;;;;;;;63.30;32.90;;;;;;;5.53;77.28;99256.10;235793;1193;22454;-74
2021/10/18 01:54:41;;;;;;;61.20;30.80;;;;;;;5.62;77.15;99259.69;235877;1194;23989;-74
2021/10/18 01:59:44;;;;;;;70.10;34.60;;;;;;;5.70;77.15;99254.21;235815;1190;25331;-74
2021/10/18 02:04:46;;;;;;;62.30;32.70;;;;;;;5.79;77.51;99247.27;235796;1194;25150;-73
2021/10/18 02:09:49;;;;;;;60.40;31.40;;;;;;;5.86;77.55;99245.19;235788;1193;25074;-74
2021/10/18 02:14:55;;;;;;;67.30;31.90;;;;;;;5.92;77.42;99243.68;235870;1193;25077;-72
2021/10/18 02:20:13;;;;;;;57.80;29.60;;;;;;;5.97;77.09;99245.19;235898;1190;22427;-73
2021/10/18 02:25:16;;;;;;;61.80;31.90;;;;;;;5.99;77.47;99244.64;235927;1198;25054;-72
2021/10/18 02:30:27;;;;;;;57.70;29.10;;;;;;;5.99;77.16;99242.79;235929;1193;26244;-71
2021/10/18 02:35:31;;;;;;;51.50;28.00;;;;;;;5.97;76.99;99244.09;235758;1197;23600;-74
2021/10/18 02:40:34;;;;;;;52.60;27.30;;;;;;;5.98;77.29;99241.86;235482;1198;22509;-74
2021/10/18 02:45:50;;;;;;;53.40;29.80;;;;;;;5.99;77.47;99239.91;235818;1192;22430;-75
2021/10/18 02:51:11;;;;;;;48.20;26.30;;;;;;;6.01;77.63;99241.16;235863;1193;25205;-72
2021/10/18 02:56:13;;;;;;;49.20;25.10;;;;;;;6.08;77.47;99246.89;236065;1193;24050;-72
2021/10/18 03:01:16;;;;;;;45.70;25.80;;;;;;;6.18;77.39;99252.44;235881;1191;23055;-74
2021/10/18 03:06:18;;;;;;;49.40;25.60;;;;;;;6.25;77.22;99254.23;235925;1197;25041;-73
2021/10/18 03:11:20;;;;;;;45.70;25.50;;;;;;;6.30;77.04;99251.20;235841;1190;22428;-74
2021/10/18 03:16:22;;;;;;;40.60;23.80;;;;;;;6.36;76.88;99243.60;235822;1193;23985;-72
2021/10/18 03:21:24;;;;;;;43.30;23.70;;;;;;;6.39;76.98;99256.20;235858;1190;25335;-74
2021/10/18 03:26:27;;;;;;;39.20;21.70;;;;;;;6.40;76.93;99256.84;235822;1191;24080;-74
2021/10/18 03:31:42;;;;;;;34.20;19.60;;;;;;;6.42;76.82;99260.11;235899;1190;26232;-72
2021/10/18 03:36:53;;;;;;;30.60;17.70;;;;;;;6.42;76.57;99266.02;236195;1198;22516;-73
2021/10/18 03:42:08;;;;;;;28.00;16.00;;;;;;;6.42;76.43;99270.17;235822;1194;25164;-73
2021/10/18 03:47:12;;;;;;;25.70;15.30;;;;;;;6.44;76.34;99276.59;235788;1190;25109;-72
2021/10/18 03:52:17;;;;;;;23.80;15.00;;;;;;;6.53;76.58;99279.77;235714;1194;23041;-73
2021/10/18 03:57:19;;;;;;;22.20;14.20;;;;;;;6.64;76.62;99282.30;235840;1197;24160;-73
2021/10/18 04:02:22;;;;;;;23.80;12.70;;;;;;;6.69;76.60;99289.79;235926;1198;22434;-71
2021/10/18 04:07:26;;;;;;;21.30;12.70;;;;;;;6.72;76.53;99296.44;236298;1190;22436;-72
2021/10/18 04:12:29;;;;;;;18.40;11.60;;;;;;;6.69;76.45;99294.06;236073;1197;25045;-71
2021/10/18 04:17:31;;;;;;;20.10;11.40;;;;;;;6.64;76.65;99305.52;235786;1190;22452;-71
2021/10/18 04:22:33;;;;;;;19.80;11.00;;;;;;;6.60;76.90;99310.68;235741;1190;24127;-74
2021/10/18 04:27:36;;;;;;;19.60;10.80;;;;;;;6.59;77.45;99313.92;235854;1198;26136;-73
2021/10/18 04:32:38;;;;;;;17.80;10.50;;;;;;;6.60;77.79;99314.25;235813;1184;24047;-74
2021/10/18 04:37:40;;;;;;;17.20;11.10;;;;;;;6.62;77.89;99314.27;235844;1184;22471;-74
2021/10/18 04:42:42;;;;;;;17.30;10.70;;;;;;;6.57;78.24;99316.62;235866;1194;22415;-74
2021/10/18 04:47:57;;;;;;;16.50;11.00;;;;;;;6.49;78.35;99318.77;235967;1190;22439;-72
2021/10/18 04:53:09;;;;;;;20.10;12.50;;;;;;;6.47;78.66;99322.35;235917;1190;25103;-73
2021/10/18 04:58:13;;;;;;;19.30;11.90;;;;;;;6.49;78.94;99327.97;235854;1190;22415;-71
2021/10/18 05:03:35;;;;;;;21.60;13.70;;;;;;;6.57;79.19;99333.02;235999;1190;22436;-71
2021/10/18 05:08:38;;;;;;;22.00;13.60;;;;;;;6.51;79.07;99338.73;235914;1190;22447;-73
2021/10/18 05:13:40;;;;;;;22.20;13.60;;;;;;;6.48;79.46;99342.05;235858;1197;25138;-74
2021/10/18 05:18:42;;;;;;;22.80;14.10;;;;;;;6.47;79.66;99347.41;236063;1190;24042;-74
2021/10/18 05:23:44;;;;;;;19.40;13.30;;;;;;;6.45;79.88;99356.44;235656;1193;22447;-74
2021/10/18 05:28:47;;;;;;;23.40;14.40;;;;;;;6.41;80.16;99360.05;236018;1194;22484;-71
2021/10/18 05:33:49;;;;;;;20.80;14.10;;;;;;;6.46;80.62;99367.00;236153;1190;25054;-73
2021/10/18 05:38:52;;;;;;;22.40;14.50;;;;;;;6.56;80.49;99372.51;235888;1193;22446;-71
2021/10/18 05:43:54;;;;;;;20.50;15.20;;;;;;;6.67;80.95;99383.77;236117;1190;22444;-72
2021/10/18 05:48:56;;;;;;;28.00;16.40;;;;;;;6.73;81.17;99383.89;236391;1190;22432;-71
2021/10/18 05:53:59;;;;;;;21.90;14.50;;;;;;;6.79;81.02;99387.31;236798;1193;25042;-73
2021/10/18 05:59:04;;;;;;;27.50;17.70;;;;;;;6.86;81.12;99395.81;236267;1190;22497;-71
2021/10/18 06:04:06;;;;;;;26.80;17.00;;;;;;;6.96;81.30;99402.86;236639;1192;22416;-72
2021/10/18 06:09:22;;;;;;;23.40;15.30;;;;;;;7.10;81.62;99408.98;236982;1190;23498;-72
2021/10/18 06:14:39;;;;;;;24.60;14.80;;;;;;;7.22;81.70;99414.38;237180;1190;24044;-72
2021/10/18 06:19:41;;;;;;;23.50;15.30;;;;;;;7.26;81.65;99413.69;236986;1190;25192;-73
2021/10/18 06:24:43;;;;;;;24.30;15.30;;;;;;;7.30;81.76;99412.86;236713;1193;22497;-71
2021/10/18 06:29:45;;;;;;;27.30;16.70;;;;;;;7.35;81.73;99416.88;236783;1190;22561;-73
2021/10/18 06:35:02;;;;;;;22.00;14.80;;;;;;;7.41;81.90;99426.89;236947;1190;22443;-73
2021/10/18 06:40:12;;;;;;;27.00;16.70;;;;;;;7.49;81.81;99438.22;236785;1190;22543;-71
2021/10/18 06:45:30;;;;;;;26.30;16.50;;;;;;;7.65;82.21;99437.58;236923;1190;25020;-70
2021/10/18 06:50:57;;;;;;;27.50;18.30;;;;;;;7.79;82.11;99443.63;236336;1197;22470;-72
2021/10/18 06:56:10;;;;;;;31.40;18.80;;;;;;;7.87;82.07;99449.45;236284;1183;24028;-72
2021/10/18 07:01:42;;;;;;;31.30;18.60;;;;;;;7.96;82.03;99454.17;235897;1190;24040;-73
2021/10/18 07:06:50;;;;;;;27.40;16.90;;;;;;;7.95;81.87;99470.54;236269;1190;24034;-72
2021/10/18 07:11:52;;;;;;;26.70;16.80;;;;;;;7.99;81.97;99481.33;236444;1190;25192;-72
2021/10/18 07:16:54;;;;;;;23.80;15.50;;;;;;;8.02;82.01;99483.79;236076;1190;24182;-73
2021/10/18 07:21:58;;;;;;;22.30;15.00;;;;;;;8.04;82.07;99486.59;236395;1190;22445;-71
2021/10/18 07:27:03;;;;;;;21.40;14.30;;;;;;;8.07;82.07;99494.61;236438;1190;22647;-73
2021/10/18 07:32:19;;;;;;;25.80;14.90;;;;;;;8.10;82.15;99499.23;236373;1190;22558;-72
2021/10/18 07:37:27;;;;;;;20.50;15.30;;;;;;;8.14;81.99;99500.70;236218;1198;22418;-72
2021/10/18 07:42:45;;;;;;;24.90;14.60;;;;;;;8.12;81.83;99495.95;236196;1197;22421;-72
2021/10/18 07:47:58;;;;;;;22.10;14.90;;;;;;;8.12;82.00;99501.80;236271;1190;25119;-71
2021/10/18 07:53:02;;;;;;;24.00;13.70;;;;;;;8.19;82.21;99501.81;236077;1190;24161;-72
2021/10/18 07:58:11;;;;;;;23.20;14.80;;;;;;;8.30;82.20;99507.45;236523;1190;25253;-72
2021/10/18 08:03:18;;;;;;;25.30;15.10;;;;;;;8.42;82.47;99511.08;236510;1197;23197;-72
2021/10/18 08:08:29;;;;;;;26.70;15.60;;;;;;;8.48;82.14;99514.02;236589;1190;22450;-73
2021/10/18 08:13:32;;;;;;;22.00;13.80;;;;;;;8.51;82.09;99519.07;236332;1190;24069;-71
2021/10/18 08:18:37;;;;;;;22.80;15.10;;;;;;;8.55;82.04;99522.52;236224;1190;24092;-72
2021/10/18 08:23:41;;;;;;;24.20;16.00;;;;;;;8.63;82.02;99522.67;236358;1193;24696;-72
2021/10/18 08:28:45;;;;;;;23.10;16.60;;;;;;;8.73;82.08;99522.84;236645;1197;25326;-73
2021/10/18 08:33:50;;;;;;;27.50;15.30;;;;;;;8.70;81.89;99523.15;237030;1197;22447;-72
2021/10/18 08:44:38;;;;;;;22.50;14.40;;;;;;;8.77;82.07;99532.65;236562;1197;22594;-73
2021/10/18 08:50:00;;;;;;;26.40;16.40;;;;;;;8.89;82.00;99526.58;236492;1197;22497;-71
2021/10/18 08:55:25;;;;;;;28.20;19.20;;;;;;;9.03;81.99;99531.73;236457;1190;22500;-71
2021/10/18 09:00:53;;;;;;;24.40;15.50;;;;;;;9.12;81.97;99533.17;236536;1190;22559;-71
2021/10/18 09:06:24;;;;;;;27.10;17.40;;;;;;;9.20;81.68;99537.16;237911;1190;25181;-71
2021/10/18 09:11:33;;;;;;;26.60;16.40;;;;;;;9.35;81.99;99538.23;236773;1190;27328;-71
2021/10/18 09:17:01;;;;;;;24.50;16.50;;;;;;;9.53;81.43;99536.55;236567;1197;25298;-72
2021/10/18 09:22:05;;;;;;;29.20;16.60;;;;;;;9.53;80.98;99537.34;236978;1190;22624;-73
2021/10/18 09:27:16;;;;;;;23.40;15.60;;;;;;;9.62;81.18;99536.09;237442;1190;25275;-72
2021/10/18 09:32:28;;;;;;;25.40;16.70;;;;;;;9.69;80.84;99538.14;237341;1192;24201;-72
2021/10/18 09:37:40;;;;;;;26.40;19.30;;;;;;;9.77;81.06;99552.50;236705;1190;22526;-71
2021/10/18 09:43:10;;;;;;;25.60;18.00;;;;;;;9.83;80.84;99553.80;236693;1190;22453;-71
2021/10/18 10:54:04;;;;;;;15.90;11.40;;;;;;;9.74;81.31;99575.66;236450;1197;25161;-72
2021/10/18 10:59:20;;;;;;;17.50;11.10;;;;;;;9.78;81.02;99577.86;236829;1198;22461;-72
2021/10/18 11:04:30;;;;;;;14.90;10.70;;;;;;;9.76;80.97;99574.17;237014;1197;22445;-74
2021/10/18 11:09:44;;;;;;;15.60;12.00;;;;;;;9.76;81.06;99570.70;236407;1190;24053;-73
2021/10/18 11:15:10;;;;;;;17.00;12.20;;;;;;;9.76;81.15;99571.02;236114;1197;25043;-72
2021/10/18 11:20:20;;;;;;;18.20;12.40;;;;;;;9.74;81.28;99574.70;236369;1198;22443;-73
2021/10/18 11:25:36;;;;;;;17.00;12.10;;;;;;;9.70;81.29;99575.23;236428;1190;24106;-72
2021/10/18 11:30:49;;;;;;;15.90;11.50;;;;;;;9.70;81.47;99574.05;236551;1197;22522;-71
2021/10/18 11:35:52;;;;;;;15.30;10.60;;;;;;;9.75;81.42;99581.02;236297;1197;22414;-71
2021/10/18 11:40:56;;;;;;;16.10;12.10;;;;;;;9.79;81.50;99577.13;236401;1184;22505;-71
2021/10/18 11:46:13;;;;;;;17.50;12.30;;;;;;;9.75;81.19;99576.75;236426;1198;24163;-72
2021/10/18 11:51:36;;;;;;;21.20;12.70;;;;;;;9.75;81.44;99572.89;236422;1190;22455;-72
2021/10/18 11:56:38;;;;;;;17.70;12.80;;;;;;;9.78;81.49;99565.35;236263;1197;24054;-71
2021/10/18 12:01:42;;;;;;;18.10;12.70;;;;;;;9.83;81.81;99562.16;236361;1197;22546;-73
2021/10/18 12:06:46;;;;;;;18.40;13.20;;;;;;;9.91;81.65;99563.19;236411;1191;24037;-73
2021/10/18 12:11:52;;;;;;;18.90;13.20;;;;;;;10.05;81.76;99572.59;236623;1197;22431;-74
2021/10/18 12:16:56;;;;;;;18.20;11.80;;;;;;;10.31;81.84;99571.23;236367;1198;24059;-74
2021/10/18 12:22:06;;;;;;;14.20;10.70;;;;;;;10.55;81.39;99578.39;236737;1197;24047;-74
2021/10/18 12:27:13;;;;;;;16.70;11.30;;;;;;;10.77;81.07;99574.05;236485;1197;22732;-73
2021/10/18 12:32:18;;;;;;;14.20;9.90;;;;;;;10.98;80.47;99576.42;236307;1190;24063;-73
2021/10/18 12:37:26;;;;;;;14.20;10.00;;;;;;;11.07;80.10;99573.50;236930;1197;22397;-73
2021/10/18 12:42:33;;;;;;;12.60;8.90;;;;;;;11.17;79.73;99576.91;237888;1190;24256;-73
2021/10/18 12:47:39;;;;;;;14.10;9.60;;;;;;;11.26;79.45;99577.64;236748;1197;22496;-73
2021/10/18 12:53:01;;;;;;;12.80;8.80;;;;;;;11.35;79.07;99581.70;236522;1197;22477;-71
2021/10/18 12:58:04;;;;;;;12.60;8.00;;;;;;;11.34;78.47;99586.19;236823;1193;25463;-71
2021/10/18 13:03:07;;;;;;;10.40;7.50;;;;;;;11.30;78.41;99586.64;236440;1193;22565;-71
2021/10/18 13:08:10;;;;;;;13.30;8.30;;;;;;;11.26;78.10;99587.08;236674;1193;24066;-72
2021/10/18 13:13:15;;;;;;;15.20;10.30;;;;;;;11.22;78.22;99588.05;237553;1191;24020;-71
2021/10/18 13:18:19;;;;;;;13.90;9.70;;;;;;;11.21;78.25;99583.66;236611;1190;22562;-71
2021/10/18 13:23:37;;;;;;;15.20;10.30;;;;;;;11.14;78.00;99585.93;236386;1197;23403;-70
2021/10/18 13:28:42;;;;;;;13.90;10.20;;;;;;;11.13;78.22;99582.83;236557;1197;22551;-70
2021/10/18 13:33:45;;;;;;;13.40;9.40;;;;;;;11.29;78.57;99576.30;236799;1190;25215;-74
2021/10/18 13:38:48;;;;;;;12.70;9.00;;;;;;;11.55;78.46;99575.71;236732;1197;22463;-73
2021/10/18 13:43:54;;;;;;;14.50;8.80;;;;;;;11.72;78.04;99576.54;236794;1197;24076;-73
2021/10/18 13:48:57;;;;;;;13.80;9.10;;;;;;;11.76;77.68;99579.05;237735;1198;22678;-73
2021/10/18 13:54:02;;;;;;;10.30;8.20;;;;;;;11.73;77.05;99582.02;236672;1197;26436;-75
2021/10/18 13:59:11;;;;;;;14.20;9.30;;;;;;;11.68;77.00;99580.00;237946;1190;23502;-74
2021/10/18 14:04:16;;;;;;;14.10;8.10;;;;;;;11.70;76.98;99586.48;238296;1198;22451;-73
2021/10/18 14:09:18;;;;;;;15.50;9.60;;;;;;;11.61;76.42;99595.11;238223;1184;24069;-72
2021/10/18 14:14:21;;;;;;;10.50;7.70;;;;;;;11.54;76.50;99592.20;236884;1193;22488;-73
2021/10/18 14:19:24;;;;;;;14.40;7.80;;;;;;;11.49;76.41;99593.07;236667;1193;22437;-74
2021/10/18 14:24:27;;;;;;;9.90;7.10;;;;;;;11.37;76.27;99593.27;236890;1197;25157;-75
2021/10/18 14:29:30;;;;;;;14.60;8.90;;;;;;;11.30;76.32;99599.73;237588;1190;22417;-76
2021/10/18 14:34:33;;;;;;;8.60;7.10;;;;;;;11.24;76.59;99602.16;236880;1197;22571;-75
2021/10/18 14:39:35;;;;;;;9.90;7.10;;;;;;;11.13;76.51;99600.84;237166;1197;22520;-76
2021/10/18 14:44:38;;;;;;;9.30;6.30;;;;;;;11.01;76.60;99603.07;236777;1197;25225;-75
2021/10/18 14:49:40;;;;;;;10.70;6.80;;;;;;;10.92;76.54;99605.66;236772;1197;22429;-75
2021/10/18 14:54:43;;;;;;;10.20;7.20;;;;;;;10.86;76.80;99607.75;236742;1197;25013;-76
2021/10/18 14:59:46;;;;;;;10.20;6.30;;;;;;;10.77;76.77;99617.18;236923;1197;25194;-73
2021/10/18 15:04:51;;;;;;;13.40;7.60;;;;;;;10.72;76.95;99616.43;236835;1190;24038;-74
2021/10/18 15:09:53;;;;;;;11.00;7.30;;;;;;;10.71;77.08;99617.36;236967;1198;22596;-74
2021/10/18 15:14:56;;;;;;;12.80;8.70;;;;;;;10.69;77.08;99618.05;237364;1191;24037;-75
2021/10/18 15:19:59;;;;;;;14.20;10.00;;;;;;;10.61;76.81;99618.68;236822;1190;25203;-75
2021/10/18 15:25:03;;;;;;;13.50;8.80;;;;;;;10.56;77.17;99622.16;236840;1197;24041;-73
2021/10/18 15:30:11;;;;;;;12.80;7.20;;;;;;;10.51;77.17;99621.37;236539;1198;22424;-75
2021/10/18 15:35:14;;;;;;;8.10;5.40;;;;;;;10.56;77.58;99620.40;236654;1197;22616;-74
2021/10/18 15:40:18;;;;;;;10.20;6.10;;;;;;;10.49;77.22;99619.00;236708;1197;25098;-73
2021/10/18 15:45:21;;;;;;;10.20;6.80;;;;;;;10.39;77.26;99617.86;237017;1197;24101;-74
2021/10/18 15:50:38;;;;;;;9.00;6.20;;;;;;;10.29;77.50;99619.96;236756;1197;22435;-76
2021/10/18 15:56:02;;;;;;;8.90;5.90;;;;;;;10.21;77.45;99622.05;236399;1193;25099;-75
2021/10/18 16:01:04;;;;;;;12.00;6.50;;;;;;;10.17;77.68;99624.55;236425;1197;22508;-75
2021/10/18 16:06:09;;;;;;;12.80;8.80;;;;;;;10.12;77.99;99623.67;236775;1197;22466;-74
2021/10/18 16:11:13;;;;;;;18.00;10.30;;;;;;;10.05;78.14;99617.24;236650;1197;24081;-73
2021/10/18 16:16:17;;;;;;;26.80;16.00;;;;;;;9.99;78.38;99620.06;236603;1197;22418;-75
2021/10/18 16:21:20;;;;;;;32.80;18.10;;;;;;;9.95;78.48;99620.91;236638;1197;25231;-73
2021/10/18 16:26:22;;;;;;;41.70;23.40;;;;;;;9.93;78.81;99628.06;236123;1196;24087;-74
2021/10/18 16:31:25;;;;;;;41.80;25.40;;;;;;;9.90;79.00;99631.54;236268;1174;22513;-75
2021/10/18 16:36:27;;;;;;;38.20;22.00;;;;;;;9.87;79.05;99630.84;236254;1197;23144;-75
2021/10/18 16:41:30;;;;;;;27.80;17.40;;;;;;;9.81;79.28;99628.52;235873;1198;22530;-74
2021/10/18 16:46:33;;;;;;;38.50;23.20;;;;;;;9.78;79.48;99630.16;236178;1193;25038;-75
2021/10/18 16:51:36;;;;;;;36.30;23.90;;;;;;;9.73;79.63;99624.95;236005;1197;22591;-74
2021/10/18 16:56:55;;;;;;;30.10;19.10;;;;;;;9.65;79.70;99623.84;236074;1190;24107;-76
2021/10/18 17:02:18;;;;;;;34.10;21.30;;;;;;;9.55;79.89;99623.37;235987;1198;24063;-74
2021/10/18 17:07:20;;;;;;;37.00;23.90;;;;;;;9.45;79.93;99624.34;236052;1187;22459;-74
2021/10/18 17:12:23;;;;;;;45.40;28.20;;;;;;;9.33;80.07;99624.77;235952;1198;24069;-72
2021/10/18 17:17:28;;;;;;;44.90;26.50;;;;;;;9.17;80.08;99634.41;236244;1190;24054;-73
2021/10/18 17:22:33;;;;;;;229.00;150.80;;;;;;;9.01;80.49;99634.40;236163;1197;24081;-75
2021/10/18 17:27:38;;;;;;;49.10;30.60;;;;;;;9.02;81.33;99642.92;235952;1197;25196;-76
2021/10/18 17:32:41;;;;;;;42.00;24.90;;;;;;;8.99;80.90;99648.75;236039;1198;25256;-75
2021/10/18 17:37:44;;;;;;;35.60;21.10;;;;;;;8.96;80.93;99652.27;235830;1198;25101;-75
2021/10/18 17:42:46;;;;;;;31.90;18.40;;;;;;;8.92;80.93;99654.44;236191;1198;24231;-73
2021/10/18 17:47:52;;;;;;;35.60;19.50;;;;;;;8.91;81.10;99655.33;236289;1196;22462;-75
2021/10/18 17:52:57;;;;;;;37.20;22.70;;;;;;;8.92;81.05;99649.20;236258;1190;24094;-75
2021/10/18 17:58:03;;;;;;;48.40;29.00;;;;;;;8.87;81.17;99650.96;236239;1196;25054;-74
2021/10/18 18:03:05;;;;;;;199.50;129.40;;;;;;;8.86;81.57;99648.98;236256;1190;22457;-74
2021/10/18 18:08:08;;;;;;;53.60;32.10;;;;;;;8.96;81.98;99649.16;236147;1197;24084;-75
2021/10/18 18:13:11;;;;;;;56.70;31.80;;;;;;;9.01;81.62;99647.17;236215;1197;23019;-74
2021/10/18 18:18:15;;;;;;;53.80;31.20;;;;;;;9.04;81.65;99645.00;236315;1197;24066;-73
2021/10/18 18:23:18;;;;;;;64.20;35.20;;;;;;;9.06;81.76;99650.52;236175;1198;24187;-74
2021/10/18 18:28:21;;;;;;;63.20;33.20;;;;;;;9.07;81.69;99653.25;236233;1190;24187;-75
2021/10/18 18:33:25;;;;;;;59.90;34.00;;;;;;;9.07;81.70;99661.05;236491;1197;25130;-74
2021/10/18 18:38:27;;;;;;;53.30;30.40;;;;;;;9.08;81.82;99662.95;236319;1184;24036;-74
2021/10/18 18:43:31;;;;;;;45.70;28.40;;;;;;;9.12;81.94;99665.11;236166;1190;24021;-75
2021/10/18 18:48:36;;;;;;;50.10;30.20;;;;;;;9.15;81.96;99668.12;236050;1190;22487;-74
2021/10/18 18:53:40;;;;;;;43.90;27.00;;;;;;;9.13;81.94;99658.65;236404;1190;22450;-73
2021/10/18 18:58:42;;;;;;;47.60;26.70;;;;;;;9.09;82.07;99657.98;236259;1197;25134;-76
2021/10/18 19:03:45;;;;;;;43.20;25.50;;;;;;;9.06;82.11;99659.39;236235;1197;24015;-75
2021/10/18 19:08:47;;;;;;;43.10;26.30;;;;;;;9.02;82.23;99665.14;236078;1190;22551;-75
2021/10/18 19:13:51;;;;;;;52.30;29.10;;;;;;;8.90;82.12;99661.58;235959;1198;25364;-75
2021/10/18 19:18:55;;;;;;;41.60;25.40;;;;;;;8.79;82.16;99667.42;236004;1197;23986;-75
2021/10/18 19:24:01;;;;;;;42.10;24.40;;;;;;;8.78;82.38;99666.72;235895;1197;24066;-75
2021/10/18 19:29:03;;;;;;;42.30;23.20;;;;;;;8.78;82.39;99663.98;235915;1190;22564;-75
2021/10/18 19:34:07;;;;;;;39.60;23.60;;;;;;;8.77;82.44;99662.20;235865;1197;24801;-73
2021/10/18 19:39:10;;;;;;;42.70;23.20;;;;;;;8.74;82.48;99668.48;236068;1198;25188;-73
2021/10/18 19:44:12;;;;;;;42.80;24.80;;;;;;;8.66;82.47;99664.48;236308;1197;22480;-75
2021/10/18 19:49:15;;;;;;;36.30;21.80;;;;;;;8.57;82.64;99669.36;236165;1197;24463;-74
2021/10/18 19:54:18;;;;;;;38.90;21.60;;;;;;;8.47;82.60;99670.05;235983;1190;25282;-74
2021/10/18 19:59:23;;;;;;;36.20;20.60;;;;;;;8.39;82.77;99671.88;236148;1197;22448;-74
2021/10/18 20:04:31;;;;;;;35.10;20.40;;;;;;;8.31;82.80;99669.98;236265;1190;23984;-75
2021/10/18 20:09:49;;;;;;;37.20;23.20;;;;;;;8.22;82.82;99666.30;236129;1183;24662;-75
2021/10/18 20:14:51;;;;;;;34.00;22.70;;;;;;;8.10;82.91;99662.66;236106;1197;25168;-74
2021/10/18 20:19:55;;;;;;;35.50;20.40;;;;;;;8.03;83.13;99662.56;236047;1190;22435;-75
2021/10/18 20:24:58;;;;;;;35.90;20.50;;;;;;;7.96;83.17;99667.73;236119;1194;24053;-74
2021/10/18 20:30:00;;;;;;;44.50;22.30;;;;;;;7.92;83.32;99669.11;235922;1197;22984;-74
2021/10/18 20:35:04;;;;;;;41.40;25.20;;;;;;;7.88;83.39;99671.10;236130;1197;22451;-73
2021/10/18 20:40:09;;;;;;;50.70;26.80;;;;;;;7.79;83.53;99667.79;236064;1197;22455;-74
2021/10/18 20:45:11;;;;;;;48.40;27.70;;;;;;;7.71;83.49;99662.16;236019;1183;22464;-72
2021/10/18 20:50:14;;;;;;;49.40;27.70;;;;;;;7.67;83.78;99666.84;236047;1198;24053;-73
2021/10/18 20:55:17;;;;;;;51.70;29.20;;;;;;;7.68;83.87;99666.73;235953;1190;22464;-74
2021/10/18 21:00:21;;;;;;;51.00;29.30;;;;;;;7.70;84.01;99671.20;236020;1198;23389;-74
2021/10/18 21:05:25;;;;;;;50.70;29.80;;;;;;;7.73;84.13;99668.72;236288;1197;24664;-74
2021/10/18 21:10:28;;;;;;;48.60;28.50;;;;;;;7.67;84.22;99676.08;235962;1198;22490;-73
2021/10/18 21:15:45;;;;;;;53.50;28.90;;;;;;;7.63;84.30;99680.96;235925;1190;24007;-75
2021/10/18 21:21:10;;;;;;;52.50;29.30;;;;;;;7.58;84.34;99684.00;236013;1193;22427;-75
2021/10/18 21:26:27;;;;;;;55.50;31.00;;;;;;;7.54;84.41;99689.06;236020;1197;24120;-73
2021/10/18 21:31:30;;;;;;;48.30;27.90;;;;;;;7.49;84.72;99685.90;236010;1197;22494;-73
2021/10/18 21:36:33;;;;;;;49.20;30.00;;;;;;;7.46;84.69;99684.48;236050;1190;24208;-74
2021/10/18 21:41:37;;;;;;;55.90;32.20;;;;;;;7.41;84.62;99689.30;236259;1197;24028;-75
2021/10/18 21:46:41;;;;;;;51.20;29.80;;;;;;;7.34;84.68;99687.81;236158;1197;24041;-75
2021/10/18 21:51:44;;;;;;;54.20;31.50;;;;;;;7.30;84.92;99683.49;236000;1182;22486;-74
2021/10/18 21:56:46;;;;;;;54.70;31.30;;;;;;;7.26;85.13;99675.02;235832;1197;22531;-73
2021/10/18 22:01:49;;;;;;;54.60;29.20;;;;;;;7.24;85.06;99673.39;236181;1196;24033;-76
2021/10/18 22:06:52;;;;;;;56.30;30.50;;;;;;;7.22;85.12;99674.59;236386;1197;24030;-74
2021/10/18 22:11:56;;;;;;;57.50;29.50;;;;;;;7.21;85.23;99674.63;236298;1196;22421;-75
2021/10/18 22:17:01;;;;;;;46.70;27.90;;;;;;;7.23;85.49;99669.52;236212;1190;24075;-75
2021/10/18 22:22:05;;;;;;;49.80;29.30;;;;;;;7.22;85.59;99673.84;236211;1190;24174;-75
2021/10/18 22:27:08;;;;;;;46.80;26.50;;;;;;;7.14;85.60;99672.98;235955;1190;23670;-73
2021/10/18 22:32:11;;;;;;;48.30;27.10;;;;;;;7.08;85.55;99676.44;236000;1198;25109;-73
2021/10/18 22:37:14;;;;;;;45.80;26.80;;;;;;;7.02;85.30;99676.89;236024;1197;24047;-74
2021/10/18 22:42:30;;;;;;;46.00;26.70;;;;;;;6.97;85.39;99678.96;236057;1198;24188;-74
2021/10/18 22:47:50;;;;;;;44.00;26.40;;;;;;;6.93;85.49;99667.48;235894;1197;22446;-75
2021/10/18 22:53:10;;;;;;;47.20;27.40;;;;;;;6.85;85.10;99672.04;236047;1198;24046;-73
2021/10/18 22:58:12;;;;;;;49.80;27.50;;;;;;;6.78;85.50;99677.36;236373;1197;25698;-73
2021/10/18 23:03:15;;;;;;;45.60;27.90;;;;;;;6.73;85.52;99679.40;235944;1190;24011;-75
2021/10/18 23:08:17;;;;;;;52.10;29.10;;;;;;;6.66;85.68;99673.87;236291;1196;24034;-75
2021/10/18 23:13:20;;;;;;;47.20;27.30;;;;;;;6.59;85.80;99666.23;236014;1197;24053;-75
2021/10/18 23:18:24;;;;;;;41.60;24.80;;;;;;;6.56;85.86;99663.41;235892;1197;25177;-73
2021/10/18 23:23:33;;;;;;;41.20;24.70;;;;;;;6.57;86.28;99665.60;235884;1197;23976;-74
2021/10/18 23:28:37;;;;;;;42.10;24.20;;;;;;;6.60;86.66;99662.52;235850;1197;22418;-74
2021/10/18 23:33:40;;;;;;;41.40;24.70;;;;;;;6.61;86.43;99664.72;235803;1174;24607;-72
2021/10/18 23:38:44;;;;;;;41.70;24.40;;;;;;;6.62;86.50;99665.54;236350;1196;24021;-75
2021/10/18 23:43:47;;;;;;;42.50;23.90;;;;;;;6.63;86.49;99670.14;236149;1197;24040;-74
2021/10/18 23:48:52;;;;;;;37.70;22.00;;;;;;;6.65;86.56;99670.50;236071;1198;26423;-73
2021/10/18 23:53:55;;;;;;;40.70;23.00;;;;;;;6.69;86.38;99674.92;235711;1198;24107;-76
2021/10/18 23:58:58;;;;;;;39.20;21.80;;;;;;;6.70;86.48;99679.39;236070;1197;24027;-75
